This is the latest recevied weather packets stored in our database for station/object N3WMC. If no packets are shown the sender has not sent any weather packets the latest 10 day(s).
| Time | Temp. | Humidity | Pressure | Rain* | Wind** | Luminosity | Snow |
|---|---|---|---|---|---|---|---|
| 1778094577 | 12.22° C | 80% | 1011.6 hPa | 0 mm | - | 60 W/m² | - |
| 1778094274 | 12.22° C | 79% | 1011.4 hPa | 0 mm | - | 70 W/m² | - |
| 1778093971 | 12.22° C | 78% | 1011.2 hPa | 0 mm | - | 65 W/m² | - |
| 1778093668 | 12.78° C | 77% | 1011.1 hPa | 0 mm | - | 67 W/m² | - |
| 1778093365 | 13.33° C | 77% | 1011.1 hPa | 0 mm | - | 81 W/m² | - |
| 1778093062 | 13.33° C | 76% | 1011 hPa | 0 mm | - | 109 W/m² | - |
| 1778092759 | 13.33° C | 75% | 1010.9 hPa | 0 mm | - | 131 W/m² | - |
| 1778092454 | 13.89° C | 75% | 1011 hPa | 0 mm | - | 178 W/m² | - |
| 1778092152 | 12.78° C | 78% | 1011 hPa | 0 mm | - | 358 W/m² | - |
| 1778091849 | 12.78° C | 78% | 1011 hPa | 0 mm | - | 197 W/m² | - |
| 1778091546 | 13.33° C | 77% | 1010.7 hPa | 0 mm | - | 137 W/m² | - |
| 1778091244 | 13.33° C | 78% | 1011.1 hPa | 0 mm | - | 140 W/m² | - |
| 1778090941 | 13.33° C | 77% | 1011.1 hPa | 0 mm | - | 197 W/m² | - |
| 1778090637 | 13.33° C | 78% | 1010.7 hPa | 0 mm | - | 223 W/m² | - |
| 1778090334 | 13.33° C | 77% | 1011 hPa | 0 mm | - | 242 W/m² | - |
| 1778090030 | 13.89° C | 76% | 1010.7 hPa | 0 mm | - | 369 W/m² | - |
| 1778089727 | 13.89° C | 77% | 1010.7 hPa | 0 mm | - | 275 W/m² | - |
| 1778089425 | 13.89° C | 79% | 1010.7 hPa | 0 mm | - | 217 W/m² | - |
| 1778089122 | 13.33° C | 80% | 1010.7 hPa | 0 mm | - | 485 W/m² | - |
| 1778088819 | 12.78° C | 80% | 1010.7 hPa | 0 mm | - | 588 W/m² | - |
| 1778088516 | 11.67° C | 84% | 1010.8 hPa | 0 mm | - | 331 W/m² | - |
| 1778088212 | 12.22° C | 85% | 1010.9 hPa | 0 mm | - | 125 W/m² | - |
| 1778087905 | 12.22° C | 84% | 1010.8 hPa | 0 mm | - | 102 W/m² | - |
| 1778087602 | 12.78° C | 82% | 1010.8 hPa | 0 mm | - | 133 W/m² | - |
| 1778087299 | 12.22° C | 83% | 1010.8 hPa | 0 mm | - | 258 W/m² | - |
* Rain latest hour (hover to see other rain measurements)
** Current wind speed in m/s (hover to see current wind gust speed)